Time;durP1;ratioP1;P1;durP2;ratioP2;P2;SDS_P1;SDS_P2;PMS_P1;PMS_P2;Temp;Humidity;BMP_temperature;BMP_pressure;BME280_temperature;BME280_humidity;BME280_pressure;Samples;Min_cycle;Max_cycle;Signal;HPM_P1;HPM_P2
2021/09/27 00:00:54;;;;;;;35.20;17.87;;;15.30;99.90;;;;;;5007309;28;20199;-94
2021/09/27 00:03:21;;;;;;;36.27;18.57;;;15.40;99.90;;;;;;5007262;28;20668;-94
2021/09/27 00:05:47;;;;;;;30.70;16.80;;;15.50;99.90;;;;;;4997295;28;21167;-94
2021/09/27 00:08:13;;;;;;;31.57;17.20;;;15.50;99.90;;;;;;4990674;28;20230;-94
2021/09/27 00:10:43;;;;;;;28.70;15.93;;;15.40;99.90;;;;;;5006688;28;20219;-94
2021/09/27 00:13:10;;;;;;;29.90;18.20;;;15.40;99.90;;;;;;5006871;28;20222;-94
2021/09/27 00:15:41;;;;;;;32.93;18.50;;;15.30;99.90;;;;;;5006437;28;20269;-94
2021/09/27 00:18:07;;;;;;;27.87;15.40;;;15.30;99.90;;;;;;5014039;28;20305;-94
2021/09/27 00:20:36;;;;;;;31.77;16.37;;;15.30;99.90;;;;;;4998260;28;20239;-94
2021/09/27 00:23:02;;;;;;;28.50;16.53;;;15.30;99.90;;;;;;5006413;28;21015;-93
2021/09/27 00:25:28;;;;;;;27.20;16.17;;;15.30;99.90;;;;;;4998683;28;20231;-94
2021/09/27 00:27:55;;;;;;;28.23;16.13;;;15.40;99.90;;;;;;4989423;28;20223;-94
2021/09/27 00:30:22;;;;;;;26.37;14.77;;;15.30;99.90;;;;;;4973380;28;20734;-94
2021/09/27 00:32:48;;;;;;;32.70;16.53;;;15.40;99.90;;;;;;5007460;28;20222;-95
2021/09/27 00:35:19;;;;;;;30.57;15.83;;;15.40;99.90;;;;;;5006339;28;20233;-94
2021/09/27 00:37:44;;;;;;;25.57;15.23;;;15.40;99.90;;;;;;5006362;28;20227;-94
2021/09/27 00:40:14;;;;;;;28.73;15.07;;;15.40;99.90;;;;;;5005793;28;20233;-95
2021/09/27 00:42:40;;;;;;;29.00;16.83;;;15.40;99.90;;;;;;5004693;28;20191;-95
2021/09/27 00:45:08;;;;;;;27.87;14.97;;;15.40;99.90;;;;;;5006489;28;20233;-95
2021/09/27 00:47:34;;;;;;;23.50;14.13;;;15.50;99.90;;;;;;5004793;28;20303;-95
2021/09/27 00:50:00;;;;;;;27.97;15.87;;;15.50;99.90;;;;;;4975698;28;20330;-96
2021/09/27 00:52:26;;;;;;;24.30;14.67;;;15.50;99.90;;;;;;4994168;28;20226;-96
2021/09/27 00:54:54;;;;;;;27.13;15.60;;;15.50;99.90;;;;;;5007351;28;20239;-96
2021/09/27 00:57:22;;;;;;;29.67;14.73;;;15.50;99.90;;;;;;4992333;28;20282;-95
2021/09/27 00:59:52;;;;;;;23.83;14.87;;;15.50;99.90;;;;;;5016003;28;20224;-95
2021/09/27 01:02:21;;;;;;;25.63;15.83;;;15.50;99.90;;;;;;5014254;28;20215;-96
2021/09/27 01:04:47;;;;;;;27.83;15.53;;;15.40;99.90;;;;;;4990550;28;20247;-95
2021/09/27 01:07:35;;;;;;;25.20;14.67;;;15.40;99.90;;;;;;5007751;28;20314;-96
2021/09/27 01:10:15;;;;;;;24.53;13.17;;;15.40;99.90;;;;;;5010234;28;20200;-96
2021/09/27 01:13:05;;;;;;;21.50;13.47;;;15.50;99.90;;;;;;5011503;28;20633;-95
2021/09/27 01:15:46;;;;;;;24.00;14.47;;;15.50;99.90;;;;;;5010450;28;20261;-96
2021/09/27 01:18:31;;;;;;;25.43;12.70;;;15.60;99.90;;;;;;5015095;28;21032;-96
2021/09/27 01:21:21;;;;;;;25.43;13.60;;;15.60;99.90;;;;;;5007077;28;20215;-95
2021/09/27 01:24:24;;;;;;;25.13;13.47;;;15.50;99.90;;;;;;4997334;28;20220;-96
2021/09/27 01:27:14;;;;;;;25.63;14.23;;;15.50;99.90;;;;;;5005408;28;20275;-96
2021/09/27 01:29:49;;;;;;;21.90;13.07;;;15.50;99.90;;;;;;5006561;28;20720;-95
2021/09/27 01:32:44;;;;;;;19.93;11.73;;;15.30;99.90;;;;;;5006503;28;20219;-96
2021/09/27 01:35:14;;;;;;;21.30;11.13;;;15.20;99.90;;;;;;5005892;28;20405;-96
2021/09/27 01:37:55;;;;;;;22.83;13.23;;;15.20;99.90;;;;;;5017260;28;20234;-95
2021/09/27 01:40:36;;;;;;;18.00;11.60;;;15.30;99.90;;;;;;5007248;28;20600;-95
2021/09/27 01:43:39;;;;;;;21.70;13.10;;;15.30;99.90;;;;;;4995276;28;20232;-95
2021/09/27 01:46:22;;;;;;;26.57;14.00;;;15.30;99.90;;;;;;4979544;28;20209;-95
2021/09/27 01:49:32;;;;;;;21.73;12.23;;;15.30;99.90;;;;;;5003421;28;20306;-91
2021/09/27 01:52:19;;;;;;;22.50;12.87;;;15.30;99.90;;;;;;4967336;28;20211;-95
2021/09/27 01:54:52;;;;;;;27.67;12.33;;;15.30;99.90;;;;;;5004036;28;20231;-95
2021/09/27 01:57:43;;;;;;;22.87;13.07;;;15.30;99.90;;;;;;5004631;28;20222;-95
2021/09/27 02:00:16;;;;;;;23.23;12.60;;;15.20;99.90;;;;;;5003754;28;20225;-94
2021/09/27 02:03:11;;;;;;;23.77;11.97;;;15.10;99.90;;;;;;5012731;28;20223;-95
2021/09/27 02:05:49;;;;;;;21.60;11.07;;;15.10;99.90;;;;;;5004704;28;20231;-95
2021/09/27 02:08:24;;;;;;;25.10;13.23;;;15.00;99.90;;;;;;5004925;28;20317;-95
2021/09/27 02:10:57;;;;;;;20.20;12.67;;;15.00;99.90;;;;;;5005538;28;20225;-95
2021/09/27 02:13:30;;;;;;;17.37;11.60;;;15.00;99.90;;;;;;5012390;28;20603;-95
2021/09/27 02:16:05;;;;;;;22.03;11.33;;;15.00;99.90;;;;;;5003754;28;20226;-95
2021/09/27 02:18:49;;;;;;;18.67;11.27;;;15.00;99.90;;;;;;5002425;28;20201;-95
2021/09/27 02:21:22;;;;;;;20.87;12.63;;;15.00;99.90;;;;;;5011941;28;20312;-95
2021/09/27 02:24:19;;;;;;;20.23;11.90;;;15.00;99.90;;;;;;5003343;28;20400;-96
2021/09/27 02:26:48;;;;;;;24.00;12.87;;;15.00;99.90;;;;;;5002415;28;20219;-95
2021/09/27 02:29:15;;;;;;;17.97;10.93;;;15.00;99.90;;;;;;5001450;28;20250;-95
2021/09/27 02:31:52;;;;;;;22.40;13.30;;;15.00;99.90;;;;;;4983761;28;20243;-95
2021/09/27 02:34:24;;;;;;;18.90;11.07;;;15.00;99.90;;;;;;5001365;28;20391;-95
2021/09/27 02:37:12;;;;;;;17.27;10.10;;;14.90;99.90;;;;;;5000399;28;20219;-95
2021/09/27 02:39:49;;;;;;;25.57;11.87;;;14.90;99.90;;;;;;5003288;28;20209;-95
2021/09/27 02:42:18;;;;;;;18.80;9.70;;;14.90;99.90;;;;;;5003061;28;20220;-95
2021/09/27 02:44:45;;;;;;;19.40;11.53;;;14.90;99.90;;;;;;5003262;28;20277;-95
2021/09/27 02:47:15;;;;;;;23.30;12.23;;;15.00;99.90;;;;;;4985173;28;20223;-95
2021/09/27 02:49:45;;;;;;;21.80;12.33;;;14.90;99.90;;;;;;5002300;28;20223;-95
2021/09/27 02:52:18;;;;;;;19.27;12.07;;;14.90;99.90;;;;;;5000174;28;20211;-95
2021/09/27 02:54:49;;;;;;;21.70;12.00;;;14.90;99.90;;;;;;5001349;28;20246;-95
2021/09/27 02:57:34;;;;;;;19.97;11.67;;;14.80;99.90;;;;;;5001282;28;20218;-95
2021/09/27 03:00:09;;;;;;;18.87;10.47;;;14.70;99.90;;;;;;5003224;28;20261;-96
2021/09/27 03:03:25;;;;;;;24.07;12.07;;;14.70;99.90;;;;;;5004827;28;20638;-96
2021/09/27 03:06:19;;;;;;;17.20;10.37;;;14.70;99.90;;;;;;4958046;28;20224;-96
2021/09/27 03:09:04;;;;;;;17.13;10.33;;;14.70;99.90;;;;;;4957273;28;20314;-95
2021/09/27 03:11:52;;;;;;;24.63;12.10;;;14.80;99.90;;;;;;4999792;28;20211;-96
2021/09/27 03:14:42;;;;;;;22.70;11.57;;;14.70;99.90;;;;;;5004082;28;20256;-95
2021/09/27 03:17:25;;;;;;;18.13;9.97;;;14.70;99.90;;;;;;5002107;28;20601;-95
2021/09/27 03:20:09;;;;;;;19.23;11.27;;;14.70;99.90;;;;;;5002285;28;20558;-95
2021/09/27 03:23:32;;;;;;;17.37;10.37;;;14.70;99.90;;;;;;5000936;28;20273;-95
2021/09/27 03:26:25;;;;;;;13.80;8.93;;;14.70;99.90;;;;;;5001251;28;20235;-95
2021/09/27 03:29:20;;;;;;;15.20;10.43;;;14.60;99.90;;;;;;4996298;28;20230;-95
2021/09/27 03:31:52;;;;;;;22.03;10.73;;;14.60;99.90;;;;;;5007086;28;20255;-96
2021/09/27 03:34:32;;;;;;;17.20;10.03;;;14.60;99.90;;;;;;5005715;28;20226;-95
2021/09/27 03:37:17;;;;;;;17.37;10.73;;;14.70;99.90;;;;;;5014909;28;20505;-95
2021/09/27 03:39:49;;;;;;;22.07;11.83;;;14.60;99.90;;;;;;5007302;28;20326;-95
2021/09/27 03:42:33;;;;;;;20.90;10.00;;;14.60;99.90;;;;;;5006807;28;20731;-95
2021/09/27 03:45:09;;;;;;;19.80;12.47;;;14.60;99.90;;;;;;5007586;28;20238;-96
2021/09/27 03:47:40;;;;;;;15.87;10.07;;;14.50;99.90;;;;;;5006716;28;20215;-94
2021/09/27 03:50:36;;;;;;;20.70;10.67;;;14.40;99.90;;;;;;5004742;28;20412;-94
2021/09/27 03:53:08;;;;;;;16.80;9.10;;;14.40;99.90;;;;;;5005265;28;20227;-95
2021/09/27 03:55:37;;;;;;;22.00;11.30;;;14.40;99.90;;;;;;5005980;28;20732;-94
2021/09/27 03:58:25;;;;;;;22.63;11.97;;;14.50;99.90;;;;;;5003758;28;20253;-94
2021/09/27 04:01:15;;;;;;;18.37;10.77;;;14.50;99.90;;;;;;5003920;28;20195;-95
2021/09/27 04:04:11;;;;;;;15.53;9.93;;;14.50;99.90;;;;;;5005727;28;20203;-94
2021/09/27 04:06:43;;;;;;;16.03;9.70;;;14.50;99.90;;;;;;5005495;28;20733;-94
2021/09/27 04:09:33;;;;;;;21.17;11.07;;;14.60;99.90;;;;;;5013294;28;20379;-95
2021/09/27 04:12:18;;;;;;;15.07;8.10;;;14.60;99.90;;;;;;5006234;28;20211;-94
2021/09/27 04:14:59;;;;;;;18.70;12.00;;;14.50;99.90;;;;;;5005888;28;20494;-95
2021/09/27 04:17:55;;;;;;;13.87;9.57;;;14.50;99.90;;;;;;5005865;28;20222;-94
2021/09/27 04:20:51;;;;;;;16.60;11.03;;;14.50;99.90;;;;;;5004806;28;20215;-94
2021/09/27 04:23:35;;;;;;;19.97;11.67;;;14.50;99.90;;;;;;5006017;28;20214;-93
2021/09/27 04:26:19;;;;;;;16.33;9.07;;;14.50;99.90;;;;;;5004236;28;20222;-94
2021/09/27 04:28:57;;;;;;;19.23;10.53;;;14.50;99.90;;;;;;5004299;28;20249;-95
2021/09/27 04:32:00;;;;;;;18.10;11.37;;;14.50;99.90;;;;;;5005339;28;20222;-94
2021/09/27 04:35:08;;;;;;;21.77;11.10;;;14.60;99.90;;;;;;5003883;28;20221;-94
2021/09/27 04:37:34;;;;;;;19.30;11.17;;;14.60;99.90;;;;;;5000231;28;20277;-94
2021/09/27 04:40:01;;;;;;;19.93;11.10;;;14.60;99.90;;;;;;4988134;28;20510;-93
2021/09/27 04:42:55;;;;;;;21.13;11.03;;;14.60;99.90;;;;;;5003836;28;20207;-93
2021/09/27 04:45:24;;;;;;;17.97;10.53;;;14.60;99.90;;;;;;5004411;28;20460;-92
2021/09/27 04:47:52;;;;;;;21.27;12.07;;;14.60;99.90;;;;;;5004875;28;20680;-94
2021/09/27 04:50:44;;;;;;;15.93;9.73;;;14.70;99.90;;;;;;5004377;28;20734;-95
2021/09/27 04:53:57;;;;;;;22.60;11.03;;;14.70;99.90;;;;;;5013368;28;20325;-93
2021/09/27 04:56:40;;;;;;;21.30;12.27;;;14.70;99.90;;;;;;4966751;28;20231;-93
2021/09/27 04:59:32;;;;;;;17.83;11.33;;;14.70;99.90;;;;;;5035544;28;20230;-94
2021/09/27 05:02:01;;;;;;;22.53;11.73;;;14.70;99.90;;;;;;5003711;28;20223;-92
2021/09/27 05:04:51;;;;;;;19.63;12.23;;;14.80;99.90;;;;;;5002928;28;20250;-93
2021/09/27 05:07:58;;;;;;;18.33;11.37;;;14.70;99.90;;;;;;5003441;28;20735;-93
2021/09/27 05:10:48;;;;;;;28.57;12.67;;;14.80;99.90;;;;;;4978618;28;20657;-93
2021/09/27 05:13:16;;;;;;;18.93;10.67;;;14.80;99.90;;;;;;5013074;28;20219;-93
2021/09/27 05:16:00;;;;;;;19.63;10.00;;;14.70;99.90;;;;;;5003753;28;20224;-94
2021/09/27 05:18:35;;;;;;;23.77;12.63;;;14.70;99.90;;;;;;5003313;28;20403;-94
2021/09/27 05:21:16;;;;;;;22.60;12.93;;;14.70;99.90;;;;;;5002130;28;20217;-93
2021/09/27 05:24:00;;;;;;;20.47;10.97;;;14.80;99.90;;;;;;5001693;28;20239;-91
2021/09/27 05:27:03;;;;;;;24.43;12.90;;;14.80;99.90;;;;;;5002180;28;20237;-92
2021/09/27 05:30:01;;;;;;;22.03;12.33;;;14.90;99.90;;;;;;5003386;28;20225;-93
2021/09/27 05:33:00;;;;;;;27.03;13.13;;;15.00;99.90;;;;;;4999715;28;20315;-93
2021/09/27 05:35:59;;;;;;;27.50;13.37;;;15.20;99.90;;;;;;5003736;28;20317;-94
2021/09/27 05:38:28;;;;;;;26.23;14.20;;;15.30;99.90;;;;;;5004868;28;20231;-95
2021/09/27 05:41:29;;;;;;;31.63;15.10;;;15.40;99.90;;;;;;5012937;28;20234;-94
2021/09/27 05:44:01;;;;;;;20.40;11.77;;;15.40;99.90;;;;;;5010138;28;20318;-96
2021/09/27 05:47:07;;;;;;;24.70;14.57;;;15.40;99.90;;;;;;5007413;28;20223;-96
2021/09/27 05:49:58;;;;;;;28.50;13.47;;;15.40;99.90;;;;;;5005228;28;20211;-94
2021/09/27 05:52:51;;;;;;;24.70;15.43;;;15.40;99.90;;;;;;5003970;28;20215;-96
2021/09/27 05:55:17;;;;;;;27.03;14.43;;;15.50;99.90;;;;;;5006059;28;20608;-94
2021/09/27 05:57:56;;;;;;;26.97;12.93;;;15.50;99.90;;;;;;5007900;28;20187;-95
2021/09/27 06:00:44;;;;;;;31.67;16.23;;;15.50;99.90;;;;;;5014714;28;20215;-96
2021/09/27 06:03:31;;;;;;;35.53;14.77;;;15.50;99.90;;;;;;5003604;28;20223;-91
2021/09/27 06:06:08;;;;;;;30.47;16.23;;;15.60;99.90;;;;;;5006131;28;20222;-95
2021/09/27 06:08:59;;;;;;;31.63;15.37;;;15.60;99.90;;;;;;5006779;28;20265;-96
2021/09/27 06:12:21;;;;;;;31.27;15.97;;;15.60;99.90;;;;;;5004623;28;20272;-96
2021/09/27 06:14:56;;;;;;;35.87;17.00;;;15.70;99.90;;;;;;4931623;28;20225;-96
2021/09/27 06:17:55;;;;;;;39.10;15.97;;;15.80;99.90;;;;;;5164009;22;20240;-94
2021/09/27 06:20:55;;;;;;;38.97;16.37;;;15.80;99.90;;;;;;5004166;28;20229;-95
2021/09/27 06:23:36;;;;;;;34.20;14.53;;;15.80;99.90;;;;;;4978269;28;20271;-90
2021/09/27 06:26:07;;;;;;;25.87;15.30;;;15.80;99.90;;;;;;4993143;28;20242;-92
2021/09/27 06:28:48;;;;;;;36.60;17.50;;;15.80;99.90;;;;;;4998116;28;20263;-94
2021/09/27 06:31:47;;;;;;;29.97;15.77;;;15.80;99.90;;;;;;4979827;28;20223;-93
2021/09/27 06:34:44;;;;;;;32.47;16.83;;;15.90;99.90;;;;;;4967469;28;20230;-93
2021/09/27 06:37:16;;;;;;;37.67;17.80;;;15.90;99.90;;;;;;4979130;28;20231;-94
2021/09/27 06:39:42;;;;;;;31.47;15.67;;;15.90;99.90;;;;;;4984090;28;20184;-94
2021/09/27 06:42:08;;;;;;;33.67;17.63;;;16.00;99.90;;;;;;4979728;28;20718;-95
2021/09/27 06:44:34;;;;;;;40.97;17.40;;;16.00;99.90;;;;;;4964677;28;20236;-92
2021/09/27 06:47:00;;;;;;;35.30;17.40;;;16.00;99.90;;;;;;4980748;28;20211;-95
2021/09/27 06:49:25;;;;;;;41.40;18.97;;;16.00;99.90;;;;;;4965779;28;20626;-94
2021/09/27 06:51:54;;;;;;;35.03;16.93;;;16.10;99.90;;;;;;4982739;28;20268;-94
2021/09/27 06:54:20;;;;;;;32.40;17.37;;;16.10;99.90;;;;;;4980642;28;20288;-96
2021/09/27 06:56:47;;;;;;;34.93;17.50;;;16.10;99.90;;;;;;4978425;28;20273;-96
2021/09/27 06:59:15;;;;;;;35.73;16.27;;;16.10;99.90;;;;;;4988607;28;20236;-95
2021/09/27 07:01:41;;;;;;;36.03;15.63;;;16.10;99.90;;;;;;4989101;28;20685;-95
2021/09/27 07:04:08;;;;;;;41.77;19.23;;;16.10;99.90;;;;;;4965301;28;20191;-95
2021/09/27 07:06:34;;;;;;;43.07;20.13;;;16.20;99.90;;;;;;4989902;28;20181;-92
2021/09/27 07:09:00;;;;;;;41.27;18.03;;;16.20;99.90;;;;;;4980629;28;20223;-94
2021/09/27 07:11:26;;;;;;;38.10;18.50;;;16.30;99.90;;;;;;4949029;28;20220;-94
2021/09/27 07:13:54;;;;;;;36.13;18.40;;;16.20;99.90;;;;;;4965777;28;20226;-95
2021/09/27 07:16:21;;;;;;;39.07;17.60;;;16.20;99.90;;;;;;4991396;28;20584;-93
2021/09/27 07:18:47;;;;;;;51.00;19.50;;;16.30;99.90;;;;;;4991548;28;20232;-94
2021/09/27 07:21:14;;;;;;;34.40;15.67;;;16.30;99.90;;;;;;4986029;28;20586;-94
2021/09/27 07:23:43;;;;;;;40.47;18.07;;;16.30;99.90;;;;;;4991661;28;20216;-93
2021/09/27 07:29:09;;;;;;;44.60;18.57;;;16.30;99.90;;;;;;4997146;28;20231;-92
2021/09/27 07:31:36;;;;;;;33.77;16.80;;;16.30;99.90;;;;;;4979508;28;20211;-91
2021/09/27 07:34:03;;;;;;;40.53;16.30;;;16.40;99.90;;;;;;4979588;28;20183;-91
2021/09/27 07:36:33;;;;;;;39.37;17.30;;;16.50;99.90;;;;;;4996861;28;20239;-93
2021/09/27 07:38:59;;;;;;;32.60;15.80;;;16.50;99.90;;;;;;4984277;28;20704;-94
2021/09/27 07:41:25;;;;;;;28.67;15.43;;;16.50;99.90;;;;;;4986204;28;20212;-95
2021/09/27 07:43:56;;;;;;;31.03;14.63;;;16.50;99.90;;;;;;4994887;28;20304;-94
2021/09/27 07:46:34;;;;;;;31.80;14.17;;;16.60;99.90;;;;;;4990690;28;20220;-95
2021/09/27 07:49:07;;;;;;;31.20;14.53;;;16.50;99.90;;;;;;4987347;28;20187;-94
2021/09/27 07:51:37;;;;;;;35.37;16.33;;;16.50;99.90;;;;;;5011651;28;20274;-94
2021/09/27 07:54:14;;;;;;;31.23;14.83;;;16.50;99.90;;;;;;4997191;28;20334;-94
2021/09/27 07:56:42;;;;;;;30.40;14.03;;;16.50;99.90;;;;;;4977676;28;20239;-94
2021/09/27 07:59:16;;;;;;;26.07;12.70;;;16.80;99.90;;;;;;4976424;28;20270;-95
2021/09/27 08:01:42;;;;;;;32.80;13.70;;;16.80;99.90;;;;;;4988183;28;20262;-94
2021/09/27 08:04:09;;;;;;;28.53;13.87;;;16.80;99.90;;;;;;4969102;28;20227;-94
2021/09/27 08:06:38;;;;;;;28.03;14.50;;;16.80;99.90;;;;;;4984725;28;20203;-94
2021/09/27 08:09:06;;;;;;;24.47;14.10;;;17.00;99.90;;;;;;4987979;28;20212;-94
2021/09/27 08:11:33;;;;;;;24.33;12.33;;;17.00;99.90;;;;;;4990068;28;20211;-93
2021/09/27 08:13:59;;;;;;;27.17;13.87;;;17.20;99.90;;;;;;4979677;28;20460;-94
2021/09/27 08:16:25;;;;;;;27.23;13.37;;;17.20;99.90;;;;;;4986852;28;20214;-94
2021/09/27 08:18:56;;;;;;;23.33;12.77;;;17.20;99.90;;;;;;4983740;28;20196;-92
2021/09/27 08:21:22;;;;;;;30.20;14.33;;;17.40;99.90;;;;;;4985410;28;20218;-95
2021/09/27 08:23:54;;;;;;;27.00;13.23;;;17.40;99.90;;;;;;4986297;28;20212;-94
2021/09/27 08:26:20;;;;;;;22.07;11.47;;;17.50;99.90;;;;;;4970344;28;20326;-95
2021/09/27 08:28:51;;;;;;;22.60;13.77;;;17.60;99.90;;;;;;4991926;28;20304;-96
2021/09/27 08:31:21;;;;;;;23.73;12.43;;;17.70;99.90;;;;;;4992941;28;20230;-90
2021/09/27 08:33:49;;;;;;;23.97;12.63;;;17.70;99.90;;;;;;4987774;28;20230;-93
2021/09/27 08:36:17;;;;;;;21.47;12.77;;;17.90;99.90;;;;;;4993306;28;20822;-92
2021/09/27 08:38:45;;;;;;;22.73;11.60;;;18.00;99.90;;;;;;4985836;28;20219;-93
2021/09/27 08:41:51;;;;;;;21.53;10.63;;;18.00;99.90;;;;;;4978480;28;20215;-92
2021/09/27 08:44:20;;;;;;;20.03;11.27;;;18.10;99.90;;;;;;4978734;28;20246;-92
2021/09/27 08:46:49;;;;;;;29.00;12.20;;;18.50;99.90;;;;;;4980575;28;20624;-91
2021/09/27 08:49:30;;;;;;;23.50;12.53;;;18.50;99.90;;;;;;4978988;28;20685;-92
2021/09/27 08:51:56;;;;;;;26.23;10.67;;;18.30;99.90;;;;;;4980203;28;20262;-93
2021/09/27 08:54:25;;;;;;;19.57;11.87;;;18.30;99.90;;;;;;4962818;28;20187;-93
2021/09/27 08:57:06;;;;;;;23.27;11.40;;;18.30;99.90;;;;;;4996000;28;20231;-93
2021/09/27 08:59:57;;;;;;;23.07;10.53;;;18.40;99.90;;;;;;4996055;28;20211;-90
2021/09/27 09:02:38;;;;;;;23.37;11.70;;;18.40;99.90;;;;;;4975791;28;20223;-90
2021/09/27 09:05:34;;;;;;;18.60;10.43;;;18.30;99.90;;;;;;4977954;28;20363;-92
2021/09/27 09:08:05;;;;;;;21.40;11.27;;;18.20;99.90;;;;;;4994118;28;20242;-90
2021/09/27 09:11:12;;;;;;;21.07;9.60;;;18.20;99.90;;;;;;4980236;28;20228;-89
2021/09/27 09:14:02;;;;;;;19.50;10.07;;;18.10;99.90;;;;;;4980977;28;20680;-86
2021/09/27 09:16:32;;;;;;;19.87;10.60;;;18.10;99.90;;;;;;4976491;28;20241;-86
2021/09/27 09:19:13;;;;;;;25.83;13.13;;;18.20;99.90;;;;;;4961807;28;20274;-85
2021/09/27 09:22:00;;;;;;;27.70;12.57;;;18.30;99.90;;;;;;4995529;28;20200;-85
2021/09/27 09:24:34;;;;;;;25.60;12.23;;;18.40;99.90;;;;;;4978354;28;20692;-84
2021/09/27 09:27:05;;;;;;;21.47;11.10;;;18.70;99.90;;;;;;4994491;28;20239;-88
2021/09/27 09:29:33;;;;;;;26.13;11.87;;;18.80;99.90;;;;;;4973789;28;20208;-86
2021/09/27 09:32:10;;;;;;;25.07;11.63;;;18.80;99.90;;;;;;4975645;28;20455;-86
2021/09/27 09:34:36;;;;;;;25.03;11.03;;;18.70;99.90;;;;;;4971849;28;20234;-86
2021/09/27 09:37:08;;;;;;;22.50;12.67;;;18.70;99.90;;;;;;4943433;28;20211;-85
2021/09/27 09:40:03;;;;;;;20.00;10.27;;;18.50;99.90;;;;;;4995416;28;20172;-87
2021/09/27 09:42:34;;;;;;;21.40;10.20;;;18.60;99.90;;;;;;4917596;28;20220;-89
2021/09/27 09:45:32;;;;;;;20.37;10.47;;;18.80;99.90;;;;;;4976006;28;20230;-83
2021/09/27 09:48:23;;;;;;;18.43;10.07;;;19.20;99.90;;;;;;4959925;28;20230;-84
2021/09/27 09:50:53;;;;;;;17.97;9.97;;;19.30;99.90;;;;;;4990496;28;20243;-83
2021/09/27 09:53:19;;;;;;;19.53;10.60;;;19.50;99.90;;;;;;4975218;28;20223;-84
2021/09/27 09:55:56;;;;;;;19.07;10.43;;;19.50;99.90;;;;;;4991851;28;20561;-92
2021/09/27 09:58:49;;;;;;;14.23;7.83;;;19.30;99.90;;;;;;4993229;28;20255;-91
2021/09/27 10:01:21;;;;;;;16.00;8.73;;;19.70;99.90;;;;;;4993213;28;20211;-91
2021/09/27 10:04:09;;;;;;;15.63;7.90;;;20.30;99.90;;;;;;4977124;28;20203;-90
2021/09/27 10:06:44;;;;;;;10.97;6.63;;;20.40;99.90;;;;;;4978342;28;20211;-89
2021/09/27 10:09:29;;;;;;;11.33;7.17;;;20.30;99.90;;;;;;4976249;28;20348;-92
2021/09/27 10:11:59;;;;;;;8.33;6.67;;;20.70;99.90;;;;;;4993117;28;20223;-91
2021/09/27 10:14:28;;;;;;;9.97;6.80;;;20.70;99.90;;;;;;4977000;28;20212;-91
2021/09/27 10:17:24;;;;;;;13.67;7.53;;;21.20;99.90;;;;;;4972756;28;20950;-90
2021/09/27 10:20:07;;;;;;;11.30;6.67;;;21.10;99.90;;;;;;4974374;28;20216;-92
2021/09/27 10:22:37;;;;;;;13.43;7.30;;;21.30;99.90;;;;;;4974974;28;20233;-91
2021/09/27 10:25:38;;;;;;;10.17;7.30;;;21.60;99.90;;;;;;4945036;28;20195;-90
2021/09/27 10:28:07;;;;;;;12.50;7.57;;;21.30;99.90;;;;;;4970900;28;20314;-89
2021/09/27 10:30:45;;;;;;;9.23;6.77;;;20.90;99.90;;;;;;4992117;28;21031;-92
2021/09/27 10:33:22;;;;;;;10.10;6.90;;;20.60;99.90;;;;;;4972893;28;20223;-92
2021/09/27 10:36:03;;;;;;;13.00;7.20;;;20.30;99.90;;;;;;4980429;28;20231;-90
2021/09/27 10:38:35;;;;;;;17.50;6.67;;;20.20;99.90;;;;;;4973361;28;20211;-90
2021/09/27 10:41:12;;;;;;;10.37;6.43;;;20.10;99.90;;;;;;4976929;28;20216;-90
2021/09/27 10:43:38;;;;;;;9.47;6.53;;;20.10;99.90;;;;;;4977888;28;20953;-91
2021/09/27 10:46:05;;;;;;;16.30;6.00;;;20.10;99.90;;;;;;4979845;28;20238;-85
2021/09/27 10:48:31;;;;;;;6.77;4.57;;;20.30;99.90;;;;;;4961669;28;20335;-86
2021/09/27 10:51:01;;;;;;;9.47;6.07;;;20.40;99.90;;;;;;4973861;28;20687;-86
2021/09/27 10:53:42;;;;;;;10.87;7.27;;;20.60;99.90;;;;;;4976235;28;20216;-87
2021/09/27 10:56:42;;;;;;;11.47;6.80;;;20.60;99.90;;;;;;4974954;28;20246;-85
2021/09/27 10:59:13;;;;;;;14.13;5.70;;;20.80;99.90;;;;;;4975372;28;20224;-86
2021/09/27 11:01:42;;;;;;;11.23;6.07;;;20.80;99.90;;;;;;4975843;28;20274;-85
2021/09/27 11:04:30;;;;;;;10.47;6.73;;;21.00;99.90;;;;;;4977388;28;20228;-88
2021/09/27 11:06:58;;;;;;;8.50;6.23;;;20.70;99.90;;;;;;4978148;28;20192;-90
2021/09/27 11:09:29;;;;;;;13.03;6.23;;;20.70;99.90;;;;;;4978995;28;20200;-91
2021/09/27 11:12:11;;;;;;;9.80;6.33;;;20.70;99.90;;;;;;4978607;28;20248;-91
2021/09/27 11:14:39;;;;;;;9.70;5.73;;;20.70;99.90;;;;;;4975363;28;20227;-88
2021/09/27 11:17:05;;;;;;;7.20;4.83;;;20.60;99.90;;;;;;4977655;28;20224;-89
2021/09/27 11:19:34;;;;;;;8.17;5.97;;;20.40;99.90;;;;;;4976862;28;20697;-90
2021/09/27 11:22:18;;;;;;;8.97;6.70;;;20.50;99.90;;;;;;4977148;28;20279;-90
2021/09/27 11:24:43;;;;;;;10.07;5.70;;;20.50;99.90;;;;;;4978136;28;20192;-89
2021/09/27 11:27:18;;;;;;;12.77;6.73;;;20.50;99.90;;;;;;4977335;28;20764;-88
2021/09/27 11:29:46;;;;;;;8.07;5.57;;;20.60;99.90;;;;;;4980540;28;20323;-89
2021/09/27 11:32:30;;;;;;;9.93;6.80;;;20.80;99.90;;;;;;4980419;28;20230;-89
2021/09/27 11:34:56;;;;;;;10.43;5.70;;;21.00;99.90;;;;;;4980481;28;20311;-92
2021/09/27 11:37:26;;;;;;;9.00;6.33;;;21.10;99.90;;;;;;4981281;28;20305;-90
2021/09/27 11:39:52;;;;;;;10.87;6.60;;;21.30;99.90;;;;;;4980661;28;20188;-88
2021/09/27 11:42:21;;;;;;;7.43;5.87;;;21.60;99.90;;;;;;4981522;28;20205;-91
2021/09/27 11:44:58;;;;;;;9.07;5.10;;;21.50;99.90;;;;;;4979254;28;20652;-88
2021/09/27 11:48:10;;;;;;;9.47;4.67;;;21.30;99.90;;;;;;4981243;28;20226;-89
2021/09/27 11:50:48;;;;;;;11.33;5.37;;;21.00;99.90;;;;;;4954546;28;20834;-89
2021/09/27 11:53:32;;;;;;;7.13;5.00;;;21.00;99.90;;;;;;4978397;28;20224;-89
2021/09/27 11:56:17;;;;;;;9.73;6.07;;;21.10;99.90;;;;;;4978527;28;20240;-88
2021/09/27 11:58:52;;;;;;;7.97;5.50;;;21.00;99.90;;;;;;4994872;28;20223;-89
2021/09/27 12:01:37;;;;;;;8.37;5.80;;;20.90;99.90;;;;;;4981184;28;20223;-88
2021/09/27 12:04:09;;;;;;;6.17;4.03;;;20.90;99.90;;;;;;4978538;28;20720;-88
2021/09/27 12:06:38;;;;;;;4.70;3.63;;;21.00;99.90;;;;;;4972679;28;20199;-88
2021/09/27 12:09:10;;;;;;;3.77;3.40;;;21.00;99.90;;;;;;4978639;28;20227;-90
2021/09/27 12:11:48;;;;;;;4.27;3.30;;;21.00;99.90;;;;;;4977128;28;20765;-89
2021/09/27 12:14:24;;;;;;;6.43;4.23;;;21.00;99.90;;;;;;4977793;28;20223;-89
2021/09/27 12:16:56;;;;;;;6.87;3.60;;;20.90;99.90;;;;;;4977121;28;20235;-90
2021/09/27 12:19:25;;;;;;;4.67;3.80;;;20.90;99.90;;;;;;4977228;28;20689;-90
2021/09/27 12:21:55;;;;;;;9.70;4.00;;;20.80;99.90;;;;;;4995465;28;20192;-89
2021/09/27 12:24:31;;;;;;;7.03;4.37;;;20.70;99.90;;;;;;4977022;28;20489;-89
2021/09/27 12:27:06;;;;;;;4.57;3.50;;;20.60;99.90;;;;;;4995715;28;20283;-89
2021/09/27 12:29:33;;;;;;;4.00;3.33;;;20.50;99.90;;;;;;4977704;28;20317;-90
2021/09/27 12:32:06;;;;;;;3.30;2.97;;;20.40;99.90;;;;;;4964362;28;20359;-90
2021/09/27 12:34:44;;;;;;;6.80;3.50;;;20.40;99.90;;;;;;4979470;28;20212;-91
2021/09/27 12:37:14;;;;;;;4.70;3.63;;;20.30;99.90;;;;;;4978256;28;20228;-89
2021/09/27 12:39:41;;;;;;;5.63;4.53;;;20.30;99.90;;;;;;4995751;28;20187;-88
2021/09/27 12:42:18;;;;;;;6.63;3.97;;;20.40;99.90;;;;;;4979966;28;20289;-89
2021/09/27 12:44:49;;;;;;;5.13;3.90;;;20.40;99.90;;;;;;4977922;28;20338;-90
2021/09/27 12:47:15;;;;;;;4.33;3.10;;;20.70;99.90;;;;;;4980261;28;20232;-91
2021/09/27 12:49:46;;;;;;;12.70;3.67;;;20.80;99.90;;;;;;4963545;28;20227;-88
2021/09/27 12:53:04;;;;;;;7.57;4.20;;;20.90;99.90;;;;;;4995050;28;20258;-89
2021/09/27 12:55:48;;;;;;;5.27;3.43;;;20.90;99.90;;;;;;4955485;28;20235;-88
2021/09/27 12:58:35;;;;;;;5.47;3.90;;;21.00;99.90;;;;;;4979196;28;20219;-89
2021/09/27 13:01:04;;;;;;;5.67;3.80;;;21.10;99.90;;;;;;4995732;28;20290;-89
2021/09/27 13:03:31;;;;;;;4.70;3.23;;;21.20;99.90;;;;;;4977177;28;20344;-89
2021/09/27 13:05:56;;;;;;;7.73;3.60;;;21.30;99.90;;;;;;4963924;28;20228;-91
2021/09/27 13:08:41;;;;;;;4.30;3.57;;;21.10;99.90;;;;;;4994200;28;20224;-89
2021/09/27 13:11:22;;;;;;;4.50;3.60;;;21.10;99.90;;;;;;4977169;28;20220;-88
2021/09/27 13:14:23;;;;;;;6.20;3.43;;;21.10;99.90;;;;;;4978691;28;20223;-90
2021/09/27 13:16:54;;;;;;;4.47;3.10;;;20.90;99.90;;;;;;4967877;28;20239;-89
2021/09/27 13:19:57;;;;;;;3.47;3.17;;;20.90;99.90;;;;;;4979726;28;20227;-90
2021/09/27 13:22:25;;;;;;;6.03;3.80;;;20.90;99.90;;;;;;4952062;28;20222;-91
2021/09/27 13:25:21;;;;;;;3.93;3.27;;;20.80;99.90;;;;;;4993875;28;20224;-89
2021/09/27 13:27:50;;;;;;;4.00;2.90;;;20.80;99.90;;;;;;4976862;28;20322;-93